Station: Yunta

  Atmospheric Gas Attenuation - ITU Rec 676-11   --------------- db/100km ---------------
Date Time Temp RH % AH g/m3 Dew Point Wind Direction Speed kph Gust kph Barometer mB Rainfall Since 9am 24GHz 47GHz 76GHz 122GHz 134GHz 241GHz
15 01:20 10.6 84 8.2 8 13 15 1015.9 0 18.9 26.3 39.9 104.6 97.3 334.2
15 01:10 10.9 84 8.36 8.4 15 17 1015.8 0 19.2 26.5 40.4 106.0 99.1 340.5
15 01:00 10 83 7.8 7.3 6 9 1015.8 0 18.1 25.8 38.5 101.0 92.6 317.6
15 00:50 10.3 83 7.95 7.5 7 9 1015.8 0 18.4 25.9 39.0 102.3 94.3 323.5
15 00:40 9.6 85 7.79 7.2 6 7 1015.9 0 18.0 25.9 38.7 101.4 93.0 318.8
15 00:30 8.7 83 7.18 6 4 4 1015.9 0 16.8 25.1 36.6 95.9 85.7 293.4
15 00:20 9.4 84 7.6 6.8 4 4 1015.9 0 17.6 25.6 38.0 99.6 90.6 310.6
15 00:10 9.1 82 7.28 6.3 4 6 1015.9 0 17.0 25.2 36.8 96.5 86.6 296.6
15 00:00 9 83 7.32 6.3 7 9 1016.1 0 17.1 25.3 37.1 97.1 87.3 299.0
14 23:50 8.5 81 6.92 5.4 9 9 1016.2 0 16.2 24.8 35.7 93.3 82.5 282.0
14 23:40 8.9 79 6.92 5.4 9 9 1016.2 0 16.2 24.7 35.5 92.8 82.1 280.6
14 23:30 9.1 76 6.75 5.1 7 9 1016.3 0 15.8 24.3 34.7 90.8 79.6 272.1
14 23:20 9.9 75 7 5.8 7 9 1016.2 0 16.3 24.5 35.4 92.5 82.1 280.7
14 23:10 10.4 76 7.33 6.3 6 6 1016.2 0 17.0 24.9 36.5 95.5 85.9 294.2
14 23:00 10.1 74 7 5.7 4 6 1016.2 0 16.3 24.5 35.3 92.3 81.9 280.0
14 22:50 10.3 72 6.9 5.6 6 6 1016.2 0 16.1 24.3 34.8 91.0 80.3 274.8
14 22:40 10.6 73 7.13 5.9 9 11 1016.2 0 16.6 24.5 35.6 93.1 83.0 284.2
14 22:30 10.7 74 7.27 6.3 11 13 1016.1 0 16.9 24.7 36.1 94.4 84.8 290.3
14 22:20 10.9 72 7.16 6 11 13 1016.1 0 16.6 24.5 35.6 93.0 83.1 284.5
14 22:10 11.1 71 7.15 6 11 11 1016.2 0 16.6 24.4 35.4 92.7 82.8 283.3
14 22:00 11.6 70 7.28 6.3 13 15 1016.2 0 16.9 24.5 35.7 93.5 83.9 287.4
14 21:50 11.9 69 7.31 6.4 13 15 1016.3 0 16.9 24.5 35.7 93.5 84.0 287.7
14 21:40 12.5 68 7.48 6.7 15 15 1016.2 0 17.3 24.6 36.1 94.5 85.5 293.2
14 21:30 12.4 68 7.43 6.7 13 15 1016.2 0 17.2 24.5 35.9 94.1 85.0 291.3
14 21:20 12.8 67 7.51 6.8 13 15 1016.3 0 17.3 24.5 36.1 94.5 85.6 293.5
14 21:10 12.8 69 7.73 7.4 13 13 1016.3 0 17.8 24.9 37.0 96.8 88.4 303.5
14 21:00 11.1 78 7.86 7.4 11 13 1016.3 0 18.1 25.6 38.3 100.3 92.1 316.1
14 20:50 10.2 73 6.95 5.7 4 4 1016.3 0 16.2 24.4 35.0 91.7 81.1 277.4
14 20:40 10.6 73 7.13 5.9 4 4 1016.2 0 16.6 24.5 35.6 93.1 83.0 284.2
14 20:30 10.9 74 7.36 6.5 4 6 1016.1 0 17.1 24.8 36.3 95.2 85.7 293.7
14 20:20 10.6 75 7.32 6.3 2 4 1016.1 0 17.0 24.8 36.3 95.1 85.5 292.9
14 20:10 10.2 73 6.95 5.7 0 0 1016.1 0 16.2 24.4 35.0 91.6 81.1 277.4
14 20:00 10 73 6.86 5.4 4 6 1016.2 0 16.0 24.3 34.8 90.9 80.1 274.0
14 19:50 10.8 73 7.22 6.1 6 6 1016.2 0 16.8 24.6 35.8 93.8 84.0 287.6
14 19:40 10.5 70 6.79 5.4 2 2 1016.1 0 15.9 24.0 34.3 89.6 78.7 269.0
14 19:30 10.7 71 6.98 5.7 2 4 1015.9 0 16.3 24.3 34.9 91.4 81.0 276.9
14 19:20 11.1 69 6.95 5.6 4 6 1015.8 0 16.2 24.1 34.6 90.6 80.1 274.2
14 19:10 11.6 68 7.07 5.9 9 9 1015.7 0 16.4 24.2 34.9 91.2 81.2 277.8
14 19:00 11.7 68 7.11 6 11 11 1015.6 0 16.5 24.2 35.0 91.5 81.6 279.2
14 18:50 11.9 66 6.99 5.9 13 13 1015.5 0 16.2 23.9 34.4 90.0 79.8 273.1
14 18:40 12 66 7.03 6 15 15 1015.4 0 16.3 24.0 34.5 90.3 80.2 274.6
14 18:30 11.9 66 6.99 5.8 11 15 1015.3 0 16.2 23.9 34.4 90.0 79.8 273.1
14 18:20 12.1 62 6.65 5.2 11 11 1015.2 0 15.5 23.4 33.0 86.3 75.3 257.3
14 18:10 12.9 60 6.76 5.5 7 7 1015.2 0 15.7 23.3 33.1 86.6 75.9 259.5
14 18:00 13.4 59 6.86 5.6 9 11 1015.2 0 15.9 23.3 33.3 87.0 76.7 262.3
14 17:50 14.1 57 6.92 5.7 9 11 1015.1 0 16.0 23.2 33.2 86.9 76.7 262.6
14 17:40 14.4 56 6.92 5.7 13 15 1014.9 0 16.0 23.2 33.1 86.5 76.4 261.5
14 17:30 15.1 53 6.84 5.6 13 17 1014.9 0 15.8 22.9 32.5 85.0 74.8 255.9
14 17:20 15.7 51 6.82 5.6 15 17 1014.7 0 15.7 22.7 32.2 84.1 74.0 253.1
14 17:10 16 50 6.81 5.6 19 24 1014.6 0 15.7 22.6 32.0 83.7 73.6 251.7
14 17:00 16.6 47 6.64 5.3 20 32 1014.5 0 15.3 22.2 31.2 81.4 71.0 242.7
14 16:50 16.7 46 6.54 5 22 26 1014.4 0 15.1 22.0 30.8 80.4 69.7 238.3
14 16:40 17.2 46 6.74 5.5 22 26 1014.4 0 15.5 22.2 31.3 81.8 71.6 245.0
14 16:30 17.7 45 6.79 5.6 20 30 1014.5 0 15.6 22.1 31.3 81.8 71.8 245.6
14 16:20 17.3 45 6.63 5.5 20 24 1014.4 0 15.3 22.0 30.9 80.6 70.2 240.2
14 16:10 17.7 46 6.94 5.9 26 30 1014.2 0 15.9 22.3 31.8 83.2 73.5 251.7
14 16:00 17.7 45 6.79 5.6 26 37 1014.2 0 15.6 22.1 31.3 81.7 71.7 245.5
14 15:50 17.4 48 7.11 6.5 24 28 1014.1 0 16.3 22.7 32.5 85.1 75.8 259.7
14 15:40 17.6 44 6.6 5.2 30 33 1013.9 0 15.2 21.9 30.6 80.0 69.6 238.0
14 15:30 17.9 46 7.02 6.1 22 28 1014 0 16.1 22.4 32.0 83.7 74.3 254.4
14 15:20 17.5 47 7.01 6.3 20 24 1013.8 0 16.1 22.5 32.1 84.0 74.5 255.2
14 15:10 17 48 6.95 5.9 17 20 1013.8 0 15.9 22.5 32.1 84.0 74.2 254.2
14 15:00 17.8 45 6.83 5.7 26 35 1014 0 15.7 22.2 31.4 82.0 72.1 246.8
14 14:50 18.4 44 6.92 5.9 26 30 1013.8 0 15.8 22.1 31.5 82.2 72.6 248.7
14 14:40 17.6 48 7.2 6.7 32 35 1013.6 0 16.4 22.7 32.8 85.7 76.6 262.7
14 14:30 18.2 48 7.46 7 28 35 1013.6 0 17.0 23.0 33.5 87.6 79.2 271.6
14 14:20 18.5 50 7.91 7.9 30 37 1013.4 0 17.9 23.5 35.0 91.6 84.2 289.5
14 14:10 18 49 7.53 7.1 33 37 1013.4 0 17.1 23.1 33.8 88.5 80.2 275.2
14 14:00 18.7 46 7.36 6.9 28 39 1013.4 0 16.7 22.7 32.9 86.1 77.5 265.7
14 13:50 18.3 46 7.19 6.5 30 35 1013.5 0 16.4 22.5 32.4 84.9 75.8 260.0
14 13:40 17.4 48 7.11 6.5 24 30 1013.7 0 16.3 22.7 32.5 85.1 75.8 259.6
14 13:30 17.9 50 7.63 7.3 26 33 1014 0 17.3 23.3 34.2 89.6 81.5 279.9
14 13:20 18 50 7.68 7.4 28 32 1014.1 0 17.4 23.4 34.4 90.0 82.0 281.7
14 13:10 18.3 50 7.82 7.7 32 37 1014.2 0 17.7 23.5 34.8 91.0 83.4 286.6
14 13:00 18.4 51 8.02 8.1 26 33 1014.3 0 18.1 23.8 35.5 92.9 85.7 294.7
14 12:50 18.3 51 7.97 8 28 32 1014.5 0 18.0 23.7 35.3 92.5 85.3 293.0
14 12:40 18.4 51 8.02 8.3 19 26 1014.6 0 18.1 23.8 35.5 92.9 85.8 294.8
14 12:30 18.1 53 8.19 8.4 20 32 1014.9 0 18.5 24.1 36.2 95.0 88.2 303.3
14 12:20 17.3 54 7.95 7.9 24 30 1015 0 18.0 24.0 35.7 93.5 86.1 295.9
14 12:10 18.1 54 8.34 8.6 24 30 1015 0 18.8 24.3 36.8 96.5 90.0 309.8
14 12:00 17.6 54 8.1 8.4 22 24 1015.2 0 18.3 24.1 36.1 94.7 87.7 301.3
14 11:50 17.2 56 8.2 8.3 24 30 1015.4 0 18.6 24.4 36.7 96.2 89.4 307.3
14 11:40 16.9 57 8.2 8.3 26 30 1015.6 0 18.6 24.5 36.9 96.6 89.7 308.5
14 11:30 16.3 61 8.46 8.8 24 32 1015.7 0 19.2 25.1 38.1 100.0 93.7 322.3
14 11:20 15.9 62 8.4 8.6 24 28 1015.9 0 19.1 25.1 38.1 99.9 93.4 321.3
14 11:10 15.9 61 8.26 8.4 26 30 1016.1 0 18.8 24.9 37.6 98.5 91.7 315.2
14 11:00 15.8 64 8.61 9 24 32 1016.2 0 19.5 25.4 39.0 102.2 96.3 331.3
14 10:50 15.3 64 8.36 8.7 22 28 1016.4 0 19.0 25.2 38.3 100.3 93.7 322.1
14 10:40 14.9 68 8.67 9 22 26 1016.4 0 19.7 25.8 39.7 104.1 98.2 337.9
14 10:30 13.9 70 8.39 8.5 22 28 1016.5 0 19.1 25.6 39.1 102.4 95.8 329.3
14 10:20 13.8 73 8.7 9 17 20 1016.6 0 19.8 26.2 40.3 105.9 100.0 344.1
14 10:10 13.4 73 8.49 8.6 19 20 1016.7 0 19.4 26.0 39.7 104.2 97.7 336.1
14 10:00 13.8 70 8.34 8.4 19 24 1016.9 0 19.0 25.6 38.9 102.1 95.3 327.5
14 09:50 13.9 72 8.63 8.9 15 20 1016.8 0 19.6 26.0 40.0 105.0 99.0 340.4
14 09:40 13.6 72 8.47 8.6 15 17 1016.7 0 19.3 25.9 39.5 103.7 97.2 334.3
14 09:30 13.2 73 8.38 8.6 17 20 1016.7 0 19.1 25.8 39.4 103.2 96.5 331.8
14 09:20 12.4 76 8.3 8.4 13 17 1016.8 0 19.0 25.9 39.4 103.4 96.5 331.5
14 09:10 12.2 76 8.2 8.1 11 13 1017.1 0 18.8 25.9 39.2 102.7 95.4 327.7
14 09:00 11.9 78 8.26 8.3 6 7 1017 0 18.9 26.0 39.5 103.7 96.6 331.8
14 08:50 11.7 78 8.16 8.1 7 9 1016.8 1.4 18.7 25.9 39.2 102.8 95.5 327.9

Last Refresh: 15-Jun-2024 01:26:22

Bureau of Meteorology